createdAt,value
2023-12-18T00:01:18.611Z,0.99
2023-12-18T00:03:50.163Z,1.06
2023-12-18T00:06:19.052Z,0.91
2023-12-18T00:08:49.725Z,0.72
2023-12-18T00:11:21.696Z,0.69
2023-12-18T00:13:52.255Z,0.57
2023-12-18T00:16:22.437Z,0.49
2023-12-18T00:18:52.674Z,0.46
2023-12-18T00:21:22.960Z,0.49
2023-12-18T00:23:53.256Z,0.54
2023-12-18T00:26:24.455Z,0.67
2023-12-18T00:28:54.896Z,0.67
2023-12-18T00:31:25.353Z,0.70
2023-12-18T00:33:56.927Z,0.84
2023-12-18T00:36:26.962Z,0.73
2023-12-18T00:38:57.175Z,0.72
2023-12-18T00:41:27.562Z,0.61
2023-12-18T00:43:57.753Z,0.63
2023-12-18T00:46:28.157Z,0.46
2023-12-18T00:48:58.481Z,0.40
2023-12-18T00:51:28.748Z,0.25
2023-12-18T00:53:59.070Z,0.18
2023-12-18T00:56:31.010Z,0.06
2023-12-18T00:59:02.194Z,0.07
2023-12-18T01:01:33.025Z,0.32
2023-12-18T01:04:04.152Z,0.28
2023-12-18T01:06:36.957Z,0.33
2023-12-18T01:09:07.081Z,0.39
2023-12-18T01:11:37.636Z,0.13
2023-12-18T01:14:10.827Z,0.29
2023-12-18T01:16:41.076Z,0.28
2023-12-18T01:19:13.898Z,0.24
2023-12-18T01:21:49.065Z,0.20
2023-12-18T01:24:20.484Z,0.22
2023-12-18T01:26:50.690Z,0.40
2023-12-18T01:29:20.918Z,1.00
2023-12-18T01:31:51.186Z,0.70
2023-12-18T01:34:21.498Z,1.20
2023-12-18T01:36:51.813Z,1.51
2023-12-18T01:39:22.033Z,1.49
2023-12-18T01:41:52.214Z,1.51
2023-12-18T01:44:22.656Z,1.25
2023-12-18T01:46:53.364Z,1.41
2023-12-18T01:49:24.554Z,1.43
2023-12-18T01:51:54.805Z,1.53
2023-12-18T01:54:25.587Z,1.50
2023-12-18T01:56:58.070Z,1.65
2023-12-18T01:59:28.527Z,1.57
2023-12-18T02:01:58.817Z,1.43
2023-12-18T02:04:29.262Z,1.22
2023-12-18T02:07:03.245Z,1.01
2023-12-18T02:09:34.639Z,0.78
2023-12-18T02:12:06.083Z,0.69
2023-12-18T02:14:35.923Z,0.44
2023-12-18T02:17:06.346Z,0.51
2023-12-18T02:19:37.602Z,0.37
2023-12-18T02:22:07.599Z,0.04
2023-12-18T02:24:37.811Z,0.38
2023-12-18T02:27:08.265Z,0.49
2023-12-18T02:29:38.501Z,0.41
2023-12-18T02:32:09.905Z,0.69
2023-12-18T02:34:40.857Z,0.34
2023-12-18T02:37:12.144Z,0.34
2023-12-18T02:39:42.048Z,0.26
2023-12-18T02:42:12.518Z,0.52
2023-12-18T02:44:42.930Z,0.33
2023-12-18T02:47:13.121Z,0.29
2023-12-18T02:49:44.463Z,0.13
2023-12-18T02:52:16.611Z,0.29
2023-12-18T02:54:46.839Z,0.34
2023-12-18T02:57:17.309Z,0.31
2023-12-18T02:59:49.376Z,0.51
2023-12-18T03:02:19.550Z,0.39
2023-12-18T03:04:49.757Z,0.11
2023-12-18T03:07:22.311Z,0.07
2023-12-18T03:09:52.631Z,0.12
2023-12-18T03:12:23.614Z,0.01
2023-12-18T03:14:54.829Z,0.01
2023-12-18T03:17:25.215Z,-0.03
2023-12-18T03:19:55.582Z,-0.06
2023-12-18T03:22:25.786Z,0.11
2023-12-18T03:24:56.083Z,0.46
2023-12-18T03:27:28.061Z,0.24
2023-12-18T03:29:59.326Z,0.33
2023-12-18T03:32:29.452Z,0.20
2023-12-18T03:34:59.666Z,0.04
2023-12-18T03:37:29.819Z,0.01
2023-12-18T03:40:00.344Z,-0.05
2023-12-18T03:42:30.684Z,-0.08
2023-12-18T03:45:01.869Z,-0.07
2023-12-18T03:47:31.807Z,-0.03
2023-12-18T03:50:02.107Z,0.37
2023-12-18T03:52:32.317Z,0.37
2023-12-18T03:55:04.063Z,0.39
2023-12-18T03:57:36.198Z,0.32
2023-12-18T04:00:07.673Z,0.11
2023-12-18T04:02:39.505Z,-0.02
2023-12-18T04:05:10.298Z,-0.06
2023-12-18T04:07:41.703Z,0.05
2023-12-18T04:10:12.337Z,-0.11
2023-12-18T04:12:42.575Z,-0.12
2023-12-18T04:15:13.110Z,0.25
2023-12-18T04:17:43.673Z,0.30
2023-12-18T04:20:14.275Z,-0.02
2023-12-18T04:22:44.686Z,-0.15
2023-12-18T04:25:15.701Z,-0.21
2023-12-18T04:27:46.040Z,-0.18
2023-12-18T04:30:16.664Z,0.07
2023-12-18T04:32:47.927Z,-0.01
2023-12-18T04:35:17.827Z,0.15
2023-12-18T04:37:48.102Z,0.18
2023-12-18T04:40:18.304Z,0.09
2023-12-18T04:42:48.545Z,0.28
2023-12-18T04:45:19.068Z,0.19
2023-12-18T04:47:50.226Z,0.09
2023-12-18T04:50:20.510Z,0.04
2023-12-18T04:52:50.699Z,-0.04
2023-12-18T04:55:20.871Z,0.16
2023-12-18T04:57:51.255Z,0.18
2023-12-18T05:00:21.809Z,0.02
2023-12-18T05:02:53.056Z,-0.07
2023-12-18T05:05:23.058Z,-0.09
2023-12-18T05:07:53.368Z,-0.17
2023-12-18T05:10:24.797Z,0.07
2023-12-18T05:12:58.354Z,0.30
2023-12-18T05:15:31.992Z,-0.03
2023-12-18T05:18:03.589Z,-0.23
2023-12-18T05:20:35.599Z,-0.25
2023-12-18T05:23:05.718Z,0.26
2023-12-18T05:25:35.905Z,0.26
2023-12-18T05:28:06.325Z,-0.08
2023-12-18T05:30:37.840Z,-0.16
2023-12-18T05:33:07.660Z,0.04
2023-12-18T05:35:38.095Z,0.21
2023-12-18T05:38:08.836Z,0.16
2023-12-18T05:40:41.884Z,0.14
2023-12-18T05:43:12.615Z,0.66
2023-12-18T05:45:42.844Z,0.60
2023-12-18T05:48:13.427Z,0.57
2023-12-18T05:50:43.758Z,0.67
2023-12-18T05:53:14.018Z,0.44
2023-12-18T05:55:44.243Z,0.60
2023-12-18T05:58:15.568Z,0.83
2023-12-18T06:00:45.502Z,0.71
2023-12-18T06:03:15.725Z,0.61
2023-12-18T06:05:47.501Z,0.61
2023-12-18T06:08:19.582Z,0.54
2023-12-18T06:10:50.736Z,0.53
2023-12-18T06:13:20.607Z,0.48
2023-12-18T06:15:50.860Z,0.52
2023-12-18T06:18:21.317Z,0.32
2023-12-18T06:20:51.581Z,0.08
2023-12-18T06:23:21.726Z,0.10
2023-12-18T06:25:51.976Z,0.09
2023-12-18T06:28:22.159Z,-0.25
2023-12-18T06:30:52.379Z,-0.43
2023-12-18T06:33:22.936Z,-0.64
2023-12-18T06:35:53.238Z,-0.38
2023-12-18T06:38:24.417Z,-0.32
2023-12-18T06:40:56.351Z,-0.66
2023-12-18T06:43:26.634Z,-0.47
2023-12-18T06:45:56.868Z,-0.54
2023-12-18T06:48:27.974Z,-0.44
2023-12-18T06:50:57.916Z,-0.50
2023-12-18T06:53:28.229Z,-0.52
2023-12-18T06:55:58.433Z,-0.72
2023-12-18T06:58:28.788Z,-0.85
2023-12-18T07:00:59.294Z,-0.89
2023-12-18T07:03:32.475Z,-0.91
2023-12-18T07:06:01.153Z,-0.94
2023-12-18T07:08:30.820Z,-0.96
2023-12-18T07:11:01.360Z,-0.95
2023-12-18T07:13:31.512Z,-0.63
2023-12-18T07:16:01.835Z,-0.56
2023-12-18T07:18:32.198Z,-0.80
2023-12-18T07:21:02.525Z,-0.88
2023-12-18T07:23:32.689Z,-0.61
2023-12-18T07:26:02.859Z,-0.33
2023-12-18T07:28:33.032Z,-0.32
2023-12-18T07:31:06.442Z,-0.51
2023-12-18T07:33:37.329Z,-0.48
2023-12-18T07:36:08.032Z,-0.64
2023-12-18T07:38:37.678Z,-0.47
2023-12-18T07:41:08.845Z,-0.28
2023-12-18T07:43:38.757Z,-0.50
2023-12-18T07:46:24.726Z,-0.61
2023-12-18T07:48:55.120Z,-0.67
2023-12-18T07:51:25.427Z,-0.70
2023-12-18T07:53:57.497Z,-0.70
2023-12-18T07:56:27.703Z,-0.68
2023-12-18T07:58:57.872Z,-0.68
2023-12-18T08:01:28.467Z,-0.65
2023-12-18T08:04:00.897Z,-0.54
2023-12-18T08:06:31.276Z,-0.02
2023-12-18T08:09:42.164Z,0.13
2023-12-18T08:11:51.538Z,0.44
2023-12-18T08:14:21.672Z,0.44
2023-12-18T08:16:52.387Z,0.41
2023-12-18T08:19:25.754Z,0.63
2023-12-18T08:21:56.097Z,0.74
2023-12-18T08:24:26.624Z,1.58
2023-12-18T08:26:57.040Z,2.22
2023-12-18T08:29:27.230Z,2.75
2023-12-18T08:32:00.142Z,3.26
2023-12-18T08:34:30.630Z,4.07
2023-12-18T08:37:01.898Z,4.47
2023-12-18T08:39:32.010Z,5.24
2023-12-18T08:42:02.260Z,5.24
2023-12-18T08:44:34.591Z,5.61
2023-12-18T08:47:04.980Z,5.96
2023-12-18T08:49:35.250Z,6.15
2023-12-18T08:52:05.971Z,6.54
2023-12-18T08:54:36.251Z,7.06
2023-12-18T08:57:07.466Z,7.51
2023-12-18T08:59:37.372Z,7.93
2023-12-18T09:02:11.945Z,8.24
2023-12-18T09:04:42.217Z,8.51
2023-12-18T09:07:13.563Z,8.71
2023-12-18T09:09:45.076Z,8.87
2023-12-18T09:12:14.102Z,9.09
2023-12-18T09:14:43.579Z,9.39
2023-12-18T09:17:13.731Z,9.35
2023-12-18T09:19:44.003Z,9.54
2023-12-18T09:22:14.391Z,9.65
2023-12-18T09:24:44.714Z,9.76
2023-12-18T09:27:15.882Z,9.94
2023-12-18T09:29:46.984Z,9.99
2023-12-18T09:32:16.984Z,10.10
2023-12-18T09:34:47.738Z,10.03
2023-12-18T09:37:17.640Z,10.10
2023-12-18T09:39:49.218Z,10.08
2023-12-18T09:42:20.829Z,10.14
2023-12-18T09:44:51.580Z,10.44
2023-12-18T09:47:21.147Z,10.46
2023-12-18T09:49:51.356Z,10.42
2023-12-18T09:52:23.464Z,10.34
2023-12-18T09:54:54.047Z,10.48
2023-12-18T09:57:27.116Z,10.44
2023-12-18T09:59:57.505Z,10.38
2023-12-18T10:02:29.364Z,10.73
2023-12-18T10:04:59.999Z,10.80
2023-12-18T10:07:29.948Z,10.76
2023-12-18T10:10:03.011Z,10.85
2023-12-18T10:12:33.792Z,10.86
2023-12-18T10:15:04.851Z,10.74
2023-12-18T10:17:35.050Z,10.78
2023-12-18T10:20:06.956Z,10.84
2023-12-18T10:22:37.227Z,10.73
2023-12-18T10:25:07.533Z,10.66
2023-12-18T10:27:39.681Z,10.77
2023-12-18T10:30:11.058Z,10.83
2023-12-18T10:32:43.205Z,10.80
2023-12-18T10:35:14.145Z,10.73
2023-12-18T10:37:47.403Z,10.51
2023-12-18T10:40:23.529Z,10.68
2023-12-18T10:43:02.899Z,10.90
2023-12-18T10:45:35.012Z,10.76
2023-12-18T10:48:11.035Z,10.88
2023-12-18T10:50:41.957Z,10.49
2023-12-18T10:53:13.397Z,10.45
2023-12-18T10:55:43.943Z,10.78
2023-12-18T10:58:14.686Z,10.53
2023-12-18T11:00:46.413Z,10.49
2023-12-18T11:03:19.945Z,10.57
2023-12-18T11:05:53.694Z,10.28
2023-12-18T11:08:24.067Z,10.23
2023-12-18T11:10:58.085Z,10.33
2023-12-18T11:13:30.375Z,10.09
2023-12-18T11:16:10.696Z,10.14
2023-12-18T11:18:57.206Z,10.36
2023-12-18T11:21:29.744Z,10.62
2023-12-18T11:24:06.440Z,10.30
2023-12-18T11:26:32.666Z,9.80
2023-12-18T11:29:26.080Z,9.52
2023-12-18T11:31:59.666Z,9.45
2023-12-18T11:34:29.914Z,9.58
2023-12-18T11:37:01.864Z,9.60
2023-12-18T11:39:41.159Z,9.59
2023-12-18T11:42:12.940Z,9.49
2023-12-18T11:44:43.264Z,9.30
2023-12-18T11:47:13.572Z,9.34
2023-12-18T11:49:44.037Z,9.27
2023-12-18T11:52:22.294Z,9.22
2023-12-18T11:54:53.430Z,9.36
2023-12-18T11:57:23.665Z,9.26
2023-12-18T11:59:54.038Z,9.21
2023-12-18T12:02:27.951Z,9.20
2023-12-18T12:05:00.133Z,9.52
2023-12-18T12:07:30.287Z,9.51
2023-12-18T12:10:01.299Z,9.46
2023-12-18T12:12:33.332Z,9.54
2023-12-18T12:15:02.073Z,9.62
2023-12-18T12:17:31.584Z,9.74
2023-12-18T12:20:01.971Z,9.65
2023-12-18T12:22:32.570Z,9.63
2023-12-18T12:25:02.952Z,9.65
2023-12-18T12:27:34.207Z,9.53
2023-12-18T12:30:05.326Z,9.33
2023-12-18T12:32:35.328Z,9.49
2023-12-18T12:35:06.622Z,9.41
2023-12-18T12:37:36.542Z,9.33
2023-12-18T12:40:07.698Z,9.30
2023-12-18T12:42:43.404Z,9.26
2023-12-18T12:45:13.771Z,9.39
2023-12-18T12:47:44.309Z,9.47
2023-12-18T12:50:16.616Z,9.56
2023-12-18T12:52:48.191Z,9.55
2023-12-18T12:55:18.171Z,9.64
2023-12-18T12:57:48.388Z,9.65
2023-12-18T13:00:22.262Z,9.56
2023-12-18T13:02:52.447Z,9.58
2023-12-18T13:05:23.737Z,9.54
2023-12-18T13:07:55.911Z,9.55
2023-12-18T13:10:30.169Z,9.47
2023-12-18T13:13:01.644Z,9.52
2023-12-18T13:15:33.553Z,9.60
2023-12-18T13:18:05.508Z,9.72
2023-12-18T13:20:36.636Z,9.73
2023-12-18T13:23:08.575Z,9.86
2023-12-18T13:25:38.747Z,9.62
2023-12-18T13:28:09.985Z,9.65
2023-12-18T13:30:42.016Z,9.64
2023-12-18T13:33:12.457Z,9.59
2023-12-18T13:35:42.901Z,9.39
2023-12-18T13:38:14.834Z,9.31
2023-12-18T13:40:45.126Z,9.10
2023-12-18T13:43:17.391Z,9.08
2023-12-18T13:45:48.611Z,8.99
2023-12-18T13:48:18.816Z,8.76
2023-12-18T13:50:50.181Z,8.76
2023-12-18T13:53:20.160Z,8.67
2023-12-18T13:55:50.298Z,8.81
2023-12-18T13:58:21.673Z,8.61
2023-12-18T14:00:51.727Z,8.62
2023-12-18T14:03:22.510Z,8.59
2023-12-18T14:05:52.933Z,8.52
2023-12-18T14:08:23.113Z,8.36
2023-12-18T14:10:55.807Z,8.49
2023-12-18T14:13:26.463Z,8.41
2023-12-18T14:15:58.591Z,8.34
2023-12-18T14:18:28.883Z,8.26
2023-12-18T14:20:59.142Z,8.32
2023-12-18T14:23:29.383Z,8.34
2023-12-18T14:26:02.045Z,8.13
2023-12-18T14:28:33.168Z,8.04
2023-12-18T14:31:03.218Z,8.28
2023-12-18T14:33:33.671Z,8.14
2023-12-18T14:36:04.232Z,8.10
2023-12-18T14:38:36.236Z,8.05
2023-12-18T14:41:08.481Z,7.98
2023-12-18T14:43:39.212Z,8.11
2023-12-18T14:46:10.963Z,8.20
2023-12-18T14:48:41.660Z,8.17
2023-12-18T14:51:12.054Z,8.25
2023-12-18T14:53:42.206Z,8.05
2023-12-18T14:56:12.572Z,7.98
2023-12-18T14:58:42.800Z,7.91
2023-12-18T15:01:13.104Z,7.86
2023-12-18T15:03:43.362Z,7.89
2023-12-18T15:06:13.722Z,7.88
2023-12-18T15:08:43.925Z,7.83
2023-12-18T15:11:14.176Z,7.70
2023-12-18T15:13:45.285Z,7.63
2023-12-18T15:16:15.219Z,7.57
2023-12-18T15:18:45.624Z,7.55
2023-12-18T15:21:16.863Z,7.59
2023-12-18T15:23:46.950Z,7.54
2023-12-18T15:26:20.144Z,7.50
2023-12-18T15:28:50.509Z,7.37
2023-12-18T15:31:20.846Z,7.18
2023-12-18T15:33:51.316Z,7.20
2023-12-18T15:36:23.659Z,7.28
2023-12-18T15:38:53.839Z,7.26
2023-12-18T15:41:24.072Z,7.13
2023-12-18T15:43:54.726Z,7.14
2023-12-18T15:46:25.002Z,7.03
2023-12-18T15:48:56.715Z,7.03
2023-12-18T15:51:25.816Z,6.89
2023-12-18T15:53:55.869Z,6.94
2023-12-18T15:56:26.098Z,6.83
2023-12-18T15:58:56.361Z,6.79
2023-12-18T16:01:27.007Z,6.97
2023-12-18T16:03:58.608Z,7.03
2023-12-18T16:06:28.841Z,6.79
2023-12-18T16:08:59.061Z,6.70
2023-12-18T16:11:29.274Z,6.71
2023-12-18T16:14:00.386Z,6.39
2023-12-18T16:16:30.268Z,6.32
2023-12-18T16:19:00.909Z,6.48
2023-12-18T16:21:31.771Z,6.49
2023-12-18T16:24:01.425Z,6.39
2023-12-18T16:26:33.274Z,6.31
2023-12-18T16:29:06.435Z,5.97
2023-12-18T16:31:36.391Z,5.90
2023-12-18T16:34:08.363Z,5.94
2023-12-18T16:36:38.876Z,5.74
2023-12-18T16:39:09.078Z,5.48
2023-12-18T16:41:42.995Z,5.65
2023-12-18T16:44:13.295Z,5.39
2023-12-18T16:46:45.618Z,5.22
2023-12-18T16:49:14.340Z,5.02
2023-12-18T16:51:45.171Z,5.15
2023-12-18T16:54:15.196Z,5.09
2023-12-18T16:56:45.466Z,4.93
2023-12-18T16:59:18.313Z,4.60
2023-12-18T17:01:49.823Z,4.61
2023-12-18T17:04:22.335Z,4.35
2023-12-18T17:06:52.900Z,4.25
2023-12-18T17:09:23.251Z,4.39
2023-12-18T17:11:55.443Z,4.12
2023-12-18T17:14:25.645Z,4.01
2023-12-18T17:16:56.369Z,3.97
2023-12-18T17:19:27.595Z,4.03
2023-12-18T17:21:57.583Z,3.63
2023-12-18T17:24:27.832Z,3.47
2023-12-18T17:26:58.062Z,3.39
2023-12-18T17:29:28.391Z,3.71
2023-12-18T17:31:59.342Z,3.28
2023-12-18T17:34:28.954Z,3.19
2023-12-18T17:37:00.327Z,3.34
2023-12-18T17:39:30.315Z,3.39
2023-12-18T17:42:00.560Z,3.06
2023-12-18T17:44:30.754Z,2.83
2023-12-18T17:47:01.286Z,3.11
2023-12-18T17:49:31.715Z,3.13
2023-12-18T17:52:03.194Z,2.76
2023-12-18T17:54:33.144Z,2.63
2023-12-18T17:57:04.895Z,2.51
2023-12-18T17:59:34.853Z,2.39
2023-12-18T18:02:04.583Z,2.58
2023-12-18T18:04:34.829Z,2.63
2023-12-18T18:07:06.085Z,2.41
2023-12-18T18:09:36.051Z,2.44
2023-12-18T18:12:06.886Z,2.31
2023-12-18T18:14:37.050Z,2.37
2023-12-18T18:17:07.326Z,2.20
2023-12-18T18:19:37.656Z,2.52
2023-12-18T18:22:08.921Z,2.19
2023-12-18T18:24:39.106Z,1.93
2023-12-18T18:27:11.208Z,2.26
2023-12-18T18:29:40.302Z,1.92
2023-12-18T18:32:11.982Z,2.09
2023-12-18T18:34:43.320Z,2.06
2023-12-18T18:37:13.627Z,1.78
2023-12-18T18:39:45.127Z,1.92
2023-12-18T18:42:15.393Z,2.11
2023-12-18T18:44:45.622Z,1.90
2023-12-18T18:47:15.894Z,1.67
2023-12-18T18:49:47.361Z,1.81
2023-12-18T18:52:18.229Z,1.61
2023-12-18T18:54:48.221Z,1.61
2023-12-18T18:57:18.652Z,1.90
2023-12-18T18:59:48.217Z,1.98
2023-12-18T19:02:18.624Z,1.94
2023-12-18T19:04:49.058Z,1.74
2023-12-18T19:07:19.365Z,1.82
2023-12-18T19:09:49.668Z,1.70
2023-12-18T19:12:19.975Z,1.57
2023-12-18T19:14:51.799Z,1.54
2023-12-18T19:17:21.412Z,1.48
2023-12-18T19:19:51.651Z,1.48
2023-12-18T19:22:22.554Z,1.43
2023-12-18T19:24:52.952Z,1.32
2023-12-18T19:27:23.356Z,1.42
2023-12-18T19:29:54.586Z,1.45
2023-12-18T19:32:24.487Z,1.54
2023-12-18T19:34:54.705Z,1.33
2023-12-18T19:37:25.518Z,1.32
2023-12-18T19:39:56.206Z,1.20
2023-12-18T19:42:30.375Z,1.20
2023-12-18T19:45:02.332Z,1.12
2023-12-18T19:47:32.732Z,1.12
2023-12-18T19:50:03.386Z,1.31
2023-12-18T19:52:33.773Z,1.07
2023-12-18T19:55:04.577Z,1.03
2023-12-18T19:57:36.444Z,0.99
2023-12-18T20:00:05.918Z,0.98
2023-12-18T20:02:37.237Z,0.74
2023-12-18T20:05:08.767Z,1.00
2023-12-18T20:07:38.909Z,0.97
2023-12-18T20:10:11.985Z,1.08
2023-12-18T20:12:42.457Z,1.03
2023-12-18T20:15:12.918Z,0.89
2023-12-18T20:17:44.061Z,1.17
2023-12-18T20:20:14.122Z,1.03
2023-12-18T20:22:45.354Z,0.86
2023-12-18T20:25:17.080Z,0.84
2023-12-18T20:27:46.078Z,0.77
2023-12-18T20:30:15.772Z,0.84
2023-12-18T20:32:46.473Z,1.04
2023-12-18T20:35:16.845Z,0.78
2023-12-18T20:37:47.071Z,0.67
2023-12-18T20:40:17.353Z,0.58
2023-12-18T20:42:50.452Z,0.54
2023-12-18T20:45:20.779Z,0.62
2023-12-18T20:47:51.678Z,0.72
2023-12-18T20:50:22.052Z,0.57
2023-12-18T20:52:52.504Z,0.40
2023-12-18T20:55:22.812Z,0.38
2023-12-18T20:57:53.173Z,0.51
2023-12-18T21:00:25.688Z,0.32
2023-12-18T21:02:57.731Z,0.27
2023-12-18T21:05:28.467Z,0.38
2023-12-18T21:07:58.907Z,0.29
2023-12-18T21:10:31.178Z,0.17
2023-12-18T21:13:04.090Z,0.13
2023-12-18T21:15:34.505Z,0.43
2023-12-18T21:18:05.024Z,0.27
2023-12-18T21:20:36.240Z,0.11
2023-12-18T21:23:07.967Z,-0.01
2023-12-18T21:25:38.428Z,0.16
2023-12-18T21:28:09.492Z,0.38
2023-12-18T21:30:39.753Z,0.25
2023-12-18T21:33:11.678Z,0.28
2023-12-18T21:35:42.106Z,0.41
2023-12-18T21:38:12.287Z,0.13
2023-12-18T21:40:42.622Z,-0.15
2023-12-18T21:43:12.829Z,0.14
2023-12-18T21:45:43.218Z,0.11
2023-12-18T21:48:13.464Z,0.21
2023-12-18T21:50:45.808Z,-0.20
2023-12-18T21:53:17.641Z,-0.17
2023-12-18T21:55:47.209Z,-0.38
2023-12-18T21:58:17.835Z,-0.17
2023-12-18T22:00:48.063Z,-0.36
2023-12-18T22:03:22.936Z,-0.35
2023-12-18T22:05:54.396Z,-0.56
2023-12-18T22:08:24.485Z,-0.35
2023-12-18T22:10:56.629Z,-0.48
2023-12-18T22:13:26.976Z,-0.65
2023-12-18T22:15:57.282Z,-0.51
2023-12-18T22:18:29.947Z,-0.56
2023-12-18T22:21:08.076Z,-0.26
2023-12-18T22:23:35.271Z,-0.47
2023-12-18T22:26:05.746Z,-0.67
2023-12-18T22:28:36.150Z,-0.48
2023-12-18T22:31:06.820Z,-0.67
2023-12-18T22:33:37.245Z,-0.79
2023-12-18T22:36:09.398Z,-0.75
2023-12-18T22:38:40.149Z,-0.80
2023-12-18T22:41:11.000Z,-0.68
2023-12-18T22:43:40.630Z,-0.60
2023-12-18T22:46:10.850Z,-0.47
2023-12-18T22:48:41.195Z,-0.28
2023-12-18T22:51:12.523Z,-0.05
2023-12-18T22:53:43.436Z,0.21
2023-12-18T22:56:13.544Z,0.25
2023-12-18T22:58:43.818Z,-0.04
2023-12-18T23:01:14.494Z,-0.10
2023-12-18T23:03:44.979Z,-0.11
2023-12-18T23:06:15.220Z,-0.09
2023-12-18T23:08:46.102Z,0.08
2023-12-18T23:11:15.869Z,0.17
2023-12-18T23:13:46.355Z,0.34
2023-12-18T23:16:18.186Z,0.41
2023-12-18T23:18:48.935Z,0.26
2023-12-18T23:21:21.393Z,0.47
2023-12-18T23:23:53.549Z,0.20
2023-12-18T23:26:25.448Z,0.19
2023-12-18T23:28:54.393Z,0.16
2023-12-18T23:31:24.042Z,0.27
2023-12-18T23:33:55.038Z,0.27
2023-12-18T23:36:25.283Z,0.15
2023-12-18T23:38:56.518Z,0.07
2023-12-18T23:41:26.463Z,-0.01
2023-12-18T23:43:56.663Z,-0.03
2023-12-18T23:46:26.898Z,-0.16
2023-12-18T23:48:58.314Z,-0.10
2023-12-18T23:51:28.260Z,0.09
2023-12-18T23:53:59.404Z,0.08
2023-12-18T23:56:30.668Z,0.06
2023-12-18T23:59:00.623Z,0.09
